lufthavns vejr - vejr3
d.16/8 - Nu er de lyse nætter slut. Synlige planeter lige efter solnedgang, ikke så højt over horisonten: Jupiter mod sydvest, Saturn lidt sydligere og Mars mod sydøst.


Vejr3>N more information Vejr3>N


Vejr3>V more information Vejr3>V


3 timers nedbørs radar more information rain snow radar


besøg nogle andre vejrsider:

Template dokumentation
og downloads

And another site


lokal metar reports

   
EKRK - Roskilde
opdateret: 22-08-2018 04:20
mest skyet  
mest skyet  
   vind: ssø 2.6 m/s
vind: ssø 2.6 m/s
temperatur: 14°C
dugpunkt: 11°C
fugtighed: 82%
barometer: 1021 hPa
skyer: Mostly Cloudy
sigt: 10 km
sky detaljer: få skyer 1402.1 m,
mest skyet 2743.2 m
EKRK 220220Z AUTO 16005KT 9999NDV FEW046/// BKN090/// 14/11 Q1021
EKCH - Copenhagen
opdateret: 22-08-2018 04:20
klart  
klart  
   vind: syd 3.1 m/s
vind: syd 3.1 m/s
temperatur: 17°C
dugpunkt: 13°C
fugtighed: 77%
barometer: 1021 hPa
sigt: mere end 10 km
sky detaljer: klart m
EKCH 220220Z 17006KT CAVOK 17/13 Q1021 NOSIG
EHBK - Maastricht
opdateret: 22-08-2018 04:25
delvis skyet  
delvis skyet  
   vind: sv 2.6 m/s
vind: sv 2.6 m/s
temperatur: 17°C
dugpunkt: 16°C
fugtighed: 94%
barometer: 1018 hPa
skyer: Partly Cloudy
sigt: 9 km
sky detaljer: delvis skyet m
EHBK 220225Z AUTO 22005KT 9000 NSC 17/16 Q1018
ELLX - Luxemburg
opdateret: 22-08-2018 04:20
klart  
klart  
   vind: nnø 2.6 m/s
vind: nnø 2.6 m/s
temperatur: 18°C
dugpunkt: 14°C
fugtighed: 78%
barometer: 1018 hPa
skyer: Clear
sigt: mere end 10 km
sky detaljer: klart m
ELLX 220220Z AUTO 03005KT 9999 NCD 18/14 Q1018 NOSIG
  

script udviklet af  Saratoga-weather.org tilpasset til dette template  Weerstation Leuven

du finder også vores vejrinformationer på:

European Weather Network

Weather Underground

AWEKAS

WeatherlinkIP

Citizen Weather Observer Program (CWOP)

udstyr som vi anvender:

vejrstation
Davis VP2+

vejrprogram
Weather Display

vejrserver
Dell E6400

hjemmeside host
Webhosting.dk

Davis VP2+

Weather Display

Dell E6400

Webhosting.dk